Center Junction, IA

2:24 PM CDT on July 28, 2017 (GMT -0500)
Wilson Acreage | | Change Station
Active Advisory: Flood Warning

Elev 229 ft 42.06 °N, 91.19 °W | Updated 25 seconds ago

Mostly Cloudy
Mostly Cloudy
81.0 °F
Feels Like 83 °F
N
8.0
Wind Variable Wind from NE

Today
High -- | Low -- °F
--% Chance of Precip.
Yesterday
High -- | Low -- °F
Precip. -- in
Pressure 30.04 in
Visibility 10.0 miles
Clouds Mostly Cloudy 3900 ft
Mostly Cloudy 5500 ft
Mostly Cloudy 6500 ft
Heat Index 83 °F
Dew Point 64 °F
Humidity 56%
Rainfall 0.00 in
Snow Depth Not available.
5:53 AM 8:27 PM
Waxing Crescent, 32% visible
METAR KMXO 281915Z AUTO VRB05G11KT 10SM BKN039 BKN055 BKN065 26/18 A3004 RMK AO2
Pressure 30.04 in
Visibility 10.0 miles
Clouds Mostly Cloudy 3900 ft
Mostly Cloudy 5500 ft
Mostly Cloudy 6500 ft
Heat Index 83 °F
Dew Point 64 °F
Humidity 56%
Rainfall 0.00 in
Snow Depth Not available.
5:53 AM 8:27 PM
Waxing Crescent, 32% visible
METAR KMXO 281915Z AUTO VRB05G11KT 10SM BKN039 BKN055 BKN065 26/18 A3004 RMK AO2

Get Your Daily Forecast Email!

Thanks for signing up!

Be on the lookout for a verification email in your inbox.

You'll start receiving severe weather alerts in your inbox..

×

10-Day Weather Forecast

Almanac

Astronomy

Jul. 28, 2017 Rise Set
Actual Time
Civil Twilight
Nautical Twilight
Astronomical Twilight
Moon
Length of Visible Light
Length of Day
Tomorrow will be .
, % of the Moon is Illuminated

Today's Extremes

State Highs State Lows

Community

WunderPhotos

Category 6

Welcome to Category 6. This is the collective home for Weather Underground's featured writeups by Dr. Jeff Masters (right), Bob Henson (left), Chris Burt, and other regular contributors.

Nearby

Air Quality

  Air Quality AQ Index Pollutant
Not available.

Snow Depth

Station Depth Elevation

Earthquake Activity

City Distance Mag. Time & Date
Minimum magnitude displayed is 2.5.

Coastal Water Temperatures

Place Temperature

Stations

Nearby Weather Stations

Station Location Temp. Windchill Dew Point Humidity Wind Precip. Elev Updated Type
                   

Watches & Warnings

Flood Warning
Issued: 9:11 AM CDT Jul. 28, 2017 – National Weather Service

... Flood Warning now in effect until Saturday evening...

The Flood Warning continues for
the wapsipinicon river near Anamosa Shaw Rd.
* Until Saturday evening.
* At 8:15 am Friday the stage was 17.4 feet and falling.
* Flood stage is 14.5 feet.
* Minor flooding is occurring.
* Forecast... fall below flood stage Saturday evening.
* Impact... at 17.1 feet, Buffalo and Walnut creeks begin backing up
impacting local roads. 42nd street west and east of Olin are
closed.


Lat... Lon 4226 9152 4200 9090 4185 9090 4219 9160